createdAt,value
2017-12-16T00:00:01.844Z,1.20
2017-12-16T00:02:32.300Z,0.50
2017-12-16T00:05:01.186Z,0.50
2017-12-16T00:07:34.406Z,1.27
2017-12-16T00:10:05.742Z,1.17
2017-12-16T00:12:37.251Z,0.60
2017-12-16T00:15:08.381Z,0.70
2017-12-16T00:17:42.424Z,0.50
2017-12-16T00:20:21.594Z,0.90
2017-12-16T00:22:55.614Z,0.50
2017-12-16T00:25:24.297Z,1.00
2017-12-16T00:27:53.441Z,0.80
2017-12-16T00:30:22.670Z,1.00
2017-12-16T00:32:51.513Z,0.83
2017-12-16T00:35:23.965Z,1.00
2017-12-16T00:37:53.142Z,0.57
2017-12-16T00:40:21.950Z,0.50
2017-12-16T00:42:51.046Z,0.70
2017-12-16T00:45:24.960Z,0.60
2017-12-16T00:48:00.668Z,0.70
2017-12-16T00:50:34.006Z,0.50
2017-12-16T00:53:02.415Z,0.50
2017-12-16T00:55:30.781Z,0.70
2017-12-16T00:57:59.743Z,1.13
2017-12-16T01:00:29.207Z,0.70
2017-12-16T01:02:57.946Z,0.50
2017-12-16T01:05:28.145Z,0.60
2017-12-16T01:07:57.338Z,0.50
2017-12-16T01:10:26.006Z,0.70
2017-12-16T01:12:55.369Z,0.60
2017-12-16T01:15:25.014Z,0.80
2017-12-16T01:17:53.641Z,0.50
2017-12-16T01:20:22.635Z,2.40
2017-12-16T01:22:51.867Z,0.60
2017-12-16T01:25:20.966Z,1.57
2017-12-16T01:27:50.379Z,0.50
2017-12-16T01:30:20.760Z,0.60
2017-12-16T01:32:50.966Z,0.50
2017-12-16T01:38:12.134Z,0.50
2017-12-16T01:40:41.359Z,0.50
2017-12-16T01:43:10.663Z,0.60
2017-12-16T01:45:38.899Z,0.63
2017-12-16T01:48:08.269Z,0.50
2017-12-16T01:50:38.428Z,0.60
2017-12-16T01:53:07.172Z,0.80
2017-12-16T01:55:35.876Z,0.80
2017-12-16T01:58:04.355Z,0.73
2017-12-16T02:00:33.239Z,0.70
2017-12-16T02:03:04.118Z,0.50
2017-12-16T02:05:33.147Z,0.50
2017-12-16T02:08:02.773Z,0.50
2017-12-16T02:10:32.994Z,0.50
2017-12-16T02:13:02.553Z,1.10
2017-12-16T02:15:31.744Z,0.70
2017-12-16T02:18:05.968Z,0.53
2017-12-16T02:20:36.905Z,1.33
2017-12-16T02:23:06.568Z,0.50
2017-12-16T02:25:35.959Z,1.00
2017-12-16T02:28:06.252Z,0.53
2017-12-16T02:30:36.992Z,0.50
2017-12-16T02:33:07.708Z,0.80
2017-12-16T02:35:38.484Z,0.87
2017-12-16T02:38:08.048Z,0.50
2017-12-16T02:40:37.635Z,0.60
2017-12-16T02:43:07.326Z,1.03
2017-12-16T02:45:48.774Z,0.90
2017-12-16T02:48:22.884Z,1.13
2017-12-16T02:50:53.747Z,0.60
2017-12-16T02:53:24.910Z,0.63
2017-12-16T02:56:03.789Z,0.70
2017-12-16T02:58:32.233Z,0.50
2017-12-16T03:01:01.399Z,0.50
2017-12-16T03:03:39.552Z,0.50
2017-12-16T03:06:08.544Z,0.70
2017-12-16T03:08:39.369Z,0.60
2017-12-16T03:11:10.600Z,0.50
2017-12-16T03:13:41.410Z,0.50
2017-12-16T03:16:12.526Z,0.50
2017-12-16T03:18:43.518Z,0.50
2017-12-16T03:21:14.433Z,0.70
2017-12-16T03:23:47.065Z,0.60
2017-12-16T03:26:17.287Z,0.80
2017-12-16T03:28:45.776Z,0.50
2017-12-16T03:31:14.406Z,0.50
2017-12-16T03:33:44.325Z,0.60
2017-12-16T03:36:13.023Z,0.50
2017-12-16T03:38:41.240Z,0.50
2017-12-16T03:41:10.392Z,0.50
2017-12-16T03:43:38.954Z,0.57
2017-12-16T03:46:07.303Z,0.70
2017-12-16T03:48:36.135Z,0.50
2017-12-16T03:51:05.219Z,0.50
2017-12-16T03:53:42.758Z,1.03
2017-12-16T03:56:19.252Z,0.50
2017-12-16T03:58:55.444Z,0.50
2017-12-16T04:01:29.026Z,0.60
2017-12-16T04:03:57.066Z,0.50
2017-12-16T04:06:25.444Z,0.50
2017-12-16T04:08:54.853Z,0.67
2017-12-16T04:11:23.267Z,0.50
2017-12-16T04:13:53.393Z,0.50
2017-12-16T04:16:23.719Z,0.50
2017-12-16T04:18:55.294Z,0.50
2017-12-16T04:21:26.914Z,0.50
2017-12-16T04:23:58.029Z,0.80
2017-12-16T04:26:28.545Z,1.00
2017-12-16T04:28:59.928Z,0.50
2017-12-16T04:31:31.000Z,0.60
2017-12-16T04:34:02.271Z,0.60
2017-12-16T04:36:34.603Z,0.70
2017-12-16T04:39:03.219Z,0.50
2017-12-16T04:41:32.815Z,0.90
2017-12-16T04:44:05.476Z,0.50
2017-12-16T04:46:34.246Z,0.57
2017-12-16T04:49:04.307Z,0.60
2017-12-16T04:51:33.136Z,0.50
2017-12-16T04:54:02.421Z,0.50
2017-12-16T04:56:30.506Z,0.50
2017-12-16T04:59:01.685Z,0.53
2017-12-16T05:01:34.344Z,0.60
2017-12-16T05:04:03.906Z,0.50
2017-12-16T05:06:35.969Z,0.50
2017-12-16T05:09:04.727Z,0.50
2017-12-16T05:11:39.514Z,0.50
2017-12-16T05:14:09.091Z,0.50
2017-12-16T05:16:39.135Z,0.50
2017-12-16T05:19:13.153Z,0.60
2017-12-16T05:21:53.750Z,0.50
2017-12-16T05:24:29.102Z,0.50
2017-12-16T05:27:06.661Z,0.50
2017-12-16T05:29:35.989Z,0.60
2017-12-16T05:32:05.227Z,0.50
2017-12-16T05:34:34.089Z,0.50
2017-12-16T05:37:03.455Z,0.50
2017-12-16T05:39:32.741Z,0.50
2017-12-16T05:42:01.251Z,0.50
2017-12-16T05:44:31.078Z,0.50
2017-12-16T05:47:00.253Z,0.50
2017-12-16T05:49:29.877Z,0.50
2017-12-16T05:51:58.562Z,0.70
2017-12-16T05:54:26.679Z,0.67
2017-12-16T05:56:55.817Z,0.50
2017-12-16T05:59:24.225Z,0.50
2017-12-16T06:01:54.701Z,0.50
2017-12-16T06:04:22.753Z,0.50
2017-12-16T06:06:51.375Z,0.50
2017-12-16T06:09:26.494Z,0.60
2017-12-16T06:11:56.020Z,0.70
2017-12-16T06:14:24.173Z,0.50
2017-12-16T06:16:52.841Z,0.50
2017-12-16T06:19:23.472Z,0.50
2017-12-16T06:21:54.306Z,0.50
2017-12-16T06:24:24.642Z,0.50
2017-12-16T06:26:54.811Z,1.07
2017-12-16T06:29:22.864Z,0.70
2017-12-16T06:31:58.208Z,0.50
2017-12-16T06:34:27.044Z,0.50
2017-12-16T06:36:56.107Z,0.60
2017-12-16T06:39:27.090Z,0.50
2017-12-16T06:41:55.300Z,0.50
2017-12-16T06:44:23.803Z,0.50
2017-12-16T06:46:52.911Z,0.50
2017-12-16T06:49:25.205Z,0.50
2017-12-16T06:51:53.523Z,0.50
2017-12-16T06:54:22.297Z,0.50
2017-12-16T06:56:51.883Z,0.50
2017-12-16T06:59:20.293Z,0.50
2017-12-16T07:01:49.881Z,0.50
2017-12-16T07:04:18.889Z,0.50
2017-12-16T07:06:47.975Z,0.53
2017-12-16T07:09:18.495Z,0.50
2017-12-16T07:11:47.929Z,0.50
2017-12-16T07:14:16.304Z,0.50
2017-12-16T07:16:45.826Z,0.60
2017-12-16T07:19:15.408Z,0.50
2017-12-16T07:21:44.096Z,0.70
2017-12-16T07:24:12.914Z,1.33
2017-12-16T07:26:43.562Z,1.10
2017-12-16T07:29:13.577Z,0.50
2017-12-16T07:31:44.184Z,0.50
2017-12-16T07:34:14.610Z,0.50
2017-12-16T07:36:44.258Z,0.50
2017-12-16T07:39:16.101Z,0.50
2017-12-16T07:41:44.378Z,0.50
2017-12-16T07:44:17.802Z,0.60
2017-12-16T07:46:48.508Z,0.50
2017-12-16T07:49:19.424Z,0.70
2017-12-16T07:51:49.542Z,0.50
2017-12-16T07:54:19.715Z,0.50
2017-12-16T07:56:49.443Z,0.60
2017-12-16T07:59:19.560Z,0.50
2017-12-16T08:01:49.853Z,0.70
2017-12-16T08:04:36.081Z,0.50
2017-12-16T08:07:02.957Z,0.50
2017-12-16T08:09:32.430Z,0.50
2017-12-16T08:12:01.688Z,0.50
2017-12-16T08:14:31.296Z,0.50
2017-12-16T08:17:00.824Z,0.50
2017-12-16T08:19:30.113Z,0.50
2017-12-16T08:21:59.836Z,0.50
2017-12-16T08:24:29.036Z,0.50
2017-12-16T08:26:58.135Z,0.50
2017-12-16T08:29:28.946Z,0.50
2017-12-16T08:31:59.260Z,0.50
2017-12-16T08:34:28.502Z,0.50
2017-12-16T08:36:58.402Z,0.50
2017-12-16T08:39:29.488Z,0.47
2017-12-16T08:42:00.794Z,0.50
2017-12-16T08:44:33.428Z,0.50
2017-12-16T08:47:04.715Z,0.50
2017-12-16T08:49:33.372Z,0.50
2017-12-16T08:52:02.668Z,0.50
2017-12-16T08:54:31.294Z,0.50
2017-12-16T08:56:59.830Z,0.70
2017-12-16T08:59:28.124Z,0.60
2017-12-16T09:02:04.123Z,1.27
2017-12-16T09:04:35.833Z,0.50
2017-12-16T09:07:08.029Z,0.50
2017-12-16T09:09:43.966Z,0.50
2017-12-16T09:12:14.965Z,0.50
2017-12-16T09:14:50.666Z,0.50
2017-12-16T09:17:25.482Z,0.50
2017-12-16T09:19:54.189Z,0.50
2017-12-16T09:22:23.469Z,0.50
2017-12-16T09:24:53.039Z,0.50
2017-12-16T09:27:22.691Z,0.50
2017-12-16T09:29:52.467Z,0.60
2017-12-16T09:32:21.122Z,0.60
2017-12-16T09:34:49.936Z,0.50
2017-12-16T09:37:19.440Z,0.50
2017-12-16T09:39:48.362Z,0.50
2017-12-16T09:42:17.946Z,0.50
2017-12-16T09:44:47.571Z,0.50
2017-12-16T09:47:28.588Z,0.50
2017-12-16T09:49:58.139Z,0.50
2017-12-16T09:52:28.797Z,0.50
2017-12-16T09:54:59.699Z,0.50
2017-12-16T09:57:30.369Z,0.50
2017-12-16T10:00:01.520Z,0.50
2017-12-16T10:02:30.185Z,0.80
2017-12-16T10:04:59.151Z,0.87
2017-12-16T10:07:28.146Z,0.50
2017-12-16T10:09:57.185Z,0.60
2017-12-16T10:12:26.074Z,0.50
2017-12-16T10:14:59.839Z,0.60
2017-12-16T10:17:31.646Z,0.50
2017-12-16T10:20:03.698Z,0.50
2017-12-16T10:22:35.307Z,0.70
2017-12-16T10:25:04.993Z,0.50
2017-12-16T10:27:35.114Z,0.67
2017-12-16T10:30:04.625Z,0.70
2017-12-16T10:32:36.627Z,0.50
2017-12-16T10:35:06.085Z,0.50
2017-12-16T10:37:36.355Z,1.33
2017-12-16T10:40:06.668Z,0.50
2017-12-16T10:42:36.272Z,0.50
2017-12-16T10:45:05.146Z,0.50
2017-12-16T10:47:34.214Z,1.07
2017-12-16T10:50:02.740Z,0.57
2017-12-16T10:52:31.514Z,0.70
2017-12-16T10:55:01.330Z,0.60
2017-12-16T10:57:30.021Z,0.60
2017-12-16T10:59:58.930Z,0.50
2017-12-16T11:02:29.573Z,0.70
2017-12-16T11:04:59.114Z,0.97
2017-12-16T11:07:28.542Z,0.50
2017-12-16T11:10:00.868Z,0.50
2017-12-16T11:12:32.928Z,0.50
2017-12-16T11:15:05.730Z,0.50
2017-12-16T11:17:38.692Z,0.50
2017-12-16T11:20:09.615Z,0.80
2017-12-16T11:22:39.588Z,0.50
2017-12-16T11:25:10.271Z,0.70
2017-12-16T11:27:40.788Z,0.50
2017-12-16T11:30:11.629Z,0.50
2017-12-16T11:32:41.263Z,0.50
2017-12-16T11:35:11.889Z,0.93
2017-12-16T11:37:42.120Z,0.57
2017-12-16T11:40:12.596Z,0.50
2017-12-16T11:42:45.909Z,0.50
2017-12-16T11:45:26.090Z,0.50
2017-12-16T11:47:58.667Z,0.50
2017-12-16T11:50:31.526Z,0.50
2017-12-16T11:53:02.542Z,0.93
2017-12-16T11:55:33.056Z,0.57
2017-12-16T11:58:02.938Z,0.90
2017-12-16T12:00:33.489Z,0.50
2017-12-16T12:03:02.047Z,0.50
2017-12-16T12:05:31.503Z,0.50
2017-12-16T12:08:00.062Z,0.50
2017-12-16T12:10:29.910Z,0.50
2017-12-16T12:12:59.298Z,0.50
2017-12-16T12:15:28.797Z,0.50
2017-12-16T12:17:57.844Z,0.50
2017-12-16T12:20:28.831Z,0.50
2017-12-16T12:22:58.706Z,0.50
2017-12-16T12:25:28.317Z,0.50
2017-12-16T12:27:59.374Z,0.47
2017-12-16T12:30:27.636Z,0.60
2017-12-16T12:32:57.467Z,0.50
2017-12-16T12:35:27.230Z,0.63
2017-12-16T12:37:56.029Z,0.50
2017-12-16T12:40:24.988Z,0.80
2017-12-16T12:42:54.267Z,0.50
2017-12-16T12:45:23.788Z,0.50
2017-12-16T12:47:53.298Z,0.50
2017-12-16T12:50:21.918Z,0.50
2017-12-16T12:52:50.774Z,0.50
2017-12-16T12:55:19.621Z,0.60
2017-12-16T12:57:49.151Z,0.50
2017-12-16T13:00:18.172Z,0.77
2017-12-16T13:02:48.209Z,0.60
2017-12-16T13:05:17.908Z,0.73
2017-12-16T13:07:46.799Z,0.87
2017-12-16T13:10:15.288Z,0.50
2017-12-16T13:12:43.980Z,0.50
2017-12-16T13:15:13.159Z,0.80
2017-12-16T13:17:45.938Z,0.53
2017-12-16T13:20:16.232Z,0.50
2017-12-16T13:22:47.290Z,0.50
2017-12-16T13:25:17.231Z,0.60
2017-12-16T13:27:47.831Z,0.50
2017-12-16T13:32:58.531Z,0.50
2017-12-16T13:35:38.529Z,0.50
2017-12-16T13:38:07.313Z,0.50
2017-12-16T13:40:37.084Z,0.50
2017-12-16T13:55:52.835Z,1.73
2017-12-16T13:58:23.190Z,1.27
2017-12-16T14:00:52.959Z,0.60
2017-12-16T14:03:27.372Z,0.50
2017-12-16T14:05:56.137Z,0.70
2017-12-16T14:08:26.135Z,0.60
2017-12-16T14:10:56.484Z,1.43
2017-12-16T14:13:26.354Z,0.83
2017-12-16T14:15:59.087Z,2.10
2017-12-16T14:18:30.385Z,1.17
2017-12-16T14:26:30.333Z,3.50
2017-12-16T14:28:58.642Z,1.70
2017-12-16T14:39:24.504Z,2.60
2017-12-16T14:41:54.426Z,1.27
2017-12-16T14:44:23.583Z,1.80
2017-12-16T14:46:55.088Z,1.20
2017-12-16T14:57:50.713Z,1.10
2017-12-16T15:05:52.044Z,0.67
2017-12-16T15:08:21.031Z,2.43
2017-12-16T15:10:50.592Z,0.80
2017-12-16T15:13:20.076Z,0.97
2017-12-16T15:15:50.573Z,0.90
2017-12-16T15:18:19.866Z,0.70
2017-12-16T15:20:53.948Z,0.80
2017-12-16T15:23:23.272Z,0.50
2017-12-16T15:25:53.277Z,1.30
2017-12-16T15:28:23.574Z,0.87
2017-12-16T15:30:54.696Z,1.33
2017-12-16T15:33:32.586Z,0.50
2017-12-16T15:36:07.887Z,0.53
2017-12-16T15:38:43.069Z,0.57
2017-12-16T15:41:18.257Z,0.50
2017-12-16T15:43:48.980Z,1.70
2017-12-16T15:46:20.951Z,0.73
2017-12-16T15:48:53.597Z,0.60
2017-12-16T15:51:25.525Z,0.50
2017-12-16T15:53:58.723Z,0.80
2017-12-16T15:56:29.358Z,0.70
2017-12-16T15:59:01.486Z,0.50
2017-12-16T16:01:35.786Z,0.50
2017-12-16T16:04:04.594Z,0.50
2017-12-16T16:09:18.345Z,0.53
2017-12-16T16:11:47.286Z,0.60
2017-12-16T16:14:18.749Z,0.60
2017-12-16T16:16:48.431Z,1.00
2017-12-16T16:19:22.118Z,0.50
2017-12-16T16:21:54.316Z,0.90
2017-12-16T16:24:27.140Z,0.60
2017-12-16T16:27:00.232Z,0.60
2017-12-16T16:29:28.915Z,0.50
2017-12-16T16:32:00.439Z,0.50
2017-12-16T16:34:30.780Z,0.50
2017-12-16T16:37:01.566Z,0.50
2017-12-16T16:39:30.548Z,0.90
2017-12-16T16:41:59.912Z,0.50
2017-12-16T16:44:29.383Z,0.57
2017-12-16T16:46:57.931Z,0.40
2017-12-16T16:49:27.564Z,0.77
2017-12-16T16:51:57.476Z,0.50
2017-12-16T16:57:11.059Z,0.50
2017-12-16T16:59:39.681Z,0.50
2017-12-16T17:02:08.336Z,0.77
2017-12-16T17:04:46.191Z,0.70
2017-12-16T17:07:14.644Z,0.57
2017-12-16T17:09:48.228Z,0.60
2017-12-16T17:12:17.249Z,0.50
2017-12-16T17:14:46.854Z,0.50
2017-12-16T17:17:15.879Z,0.50
2017-12-16T17:19:47.146Z,0.50
2017-12-16T17:22:19.451Z,0.60
2017-12-16T17:24:49.515Z,0.50
2017-12-16T17:27:23.052Z,1.27
2017-12-16T17:29:52.108Z,1.07
2017-12-16T17:32:20.898Z,0.97
2017-12-16T17:34:50.422Z,0.63
2017-12-16T17:37:19.962Z,0.60
2017-12-16T17:39:48.794Z,0.60
2017-12-16T17:42:19.149Z,0.50
2017-12-16T17:44:47.847Z,0.50
2017-12-16T17:47:17.230Z,0.50
2017-12-16T17:49:50.160Z,0.50
2017-12-16T17:52:19.753Z,0.60
2017-12-16T17:54:49.309Z,0.50
2017-12-16T17:57:19.846Z,0.50
2017-12-16T17:59:50.055Z,0.80
2017-12-16T18:02:19.891Z,0.50
2017-12-16T18:04:50.297Z,0.80
2017-12-16T18:07:18.910Z,0.63
2017-12-16T18:09:48.518Z,0.80
2017-12-16T18:12:17.907Z,0.60
2017-12-16T18:14:46.126Z,0.50
2017-12-16T18:17:14.301Z,1.13
2017-12-16T18:19:45.333Z,1.20
2017-12-16T18:22:13.499Z,1.13
2017-12-16T18:24:42.199Z,1.10
2017-12-16T18:27:11.023Z,2.00
2017-12-16T18:29:39.446Z,1.90
2017-12-16T18:32:08.048Z,0.87
2017-12-16T18:34:36.542Z,0.83
2017-12-16T18:37:05.366Z,0.83
2017-12-16T18:39:34.251Z,0.70
2017-12-16T18:42:04.108Z,0.50
2017-12-16T18:44:33.186Z,0.50
2017-12-16T18:47:02.779Z,0.73
2017-12-16T18:49:31.826Z,0.70
2017-12-16T18:52:00.375Z,0.80
2017-12-16T18:54:29.285Z,3.08
2017-12-16T18:56:58.036Z,2.00
2017-12-16T18:59:28.267Z,1.97
2017-12-16T19:01:58.574Z,2.13
2017-12-16T19:04:28.977Z,2.07
2017-12-16T19:07:00.519Z,2.07
2017-12-16T19:09:30.044Z,2.10
2017-12-16T19:12:03.562Z,1.17
2017-12-16T19:17:22.126Z,1.50
2017-12-16T19:19:54.675Z,2.57
2017-12-16T19:22:22.921Z,5.27
2017-12-16T19:24:52.480Z,2.80
2017-12-16T19:27:28.902Z,1.00
2017-12-16T19:29:57.681Z,4.28
2017-12-16T19:32:28.346Z,3.37
2017-12-16T19:37:52.473Z,3.80
2017-12-16T19:40:21.645Z,1.77
2017-12-16T19:45:47.952Z,2.83
2017-12-16T19:48:22.345Z,5.67
2017-12-16T19:51:00.476Z,3.03
2017-12-16T19:53:30.750Z,4.73
2017-12-16T19:56:00.015Z,2.50
2017-12-16T19:58:29.959Z,3.73
2017-12-16T20:00:58.955Z,3.77
2017-12-16T20:03:28.990Z,4.13
2017-12-16T20:05:57.377Z,4.10
2017-12-16T20:08:31.941Z,3.80
2017-12-16T20:11:01.806Z,2.77
2017-12-16T20:13:31.254Z,5.30
2017-12-16T20:16:00.533Z,2.73
2017-12-16T20:18:30.440Z,2.93
2017-12-16T20:21:09.148Z,4.03
2017-12-16T20:23:37.859Z,3.93
2017-12-16T20:26:07.754Z,4.23
2017-12-16T20:28:36.598Z,5.40
2017-12-16T20:31:07.675Z,3.00
2017-12-16T20:33:40.376Z,4.73
2017-12-16T20:36:12.489Z,3.30
2017-12-16T20:38:43.811Z,5.97
2017-12-16T20:41:14.878Z,3.70
2017-12-16T20:43:48.598Z,4.30
2017-12-16T20:46:20.068Z,3.60
2017-12-16T20:48:51.617Z,3.70
2017-12-16T20:51:21.041Z,2.50
2017-12-16T20:53:50.303Z,3.43
2017-12-16T20:56:19.623Z,3.80
2017-12-16T20:58:49.236Z,2.50
2017-12-16T21:01:18.767Z,3.10
2017-12-16T21:03:48.529Z,4.23
2017-12-16T21:06:18.627Z,2.00
2017-12-16T21:08:49.085Z,1.50
2017-12-16T21:11:19.818Z,2.40
2017-12-16T21:14:02.946Z,1.67
2017-12-16T21:16:31.834Z,1.53
2017-12-16T21:19:01.553Z,2.30
2017-12-16T21:21:31.050Z,1.50
2017-12-16T21:24:01.189Z,3.10
2017-12-16T21:26:31.225Z,1.30
2017-12-16T21:29:02.589Z,2.07
2017-12-16T21:31:30.787Z,1.00
2017-12-16T21:33:59.569Z,1.43
2017-12-16T21:36:28.345Z,1.33
2017-12-16T21:38:57.460Z,1.87
2017-12-16T21:41:26.214Z,2.83
2017-12-16T21:43:55.455Z,2.47
2017-12-16T21:46:25.077Z,2.27
2017-12-16T21:48:53.984Z,1.50
2017-12-16T21:51:25.314Z,2.67
2017-12-16T21:53:56.066Z,2.70
2017-12-16T21:56:25.048Z,3.17
2017-12-16T21:58:53.732Z,4.20
2017-12-16T22:01:22.460Z,1.00
2017-12-16T22:03:50.717Z,1.40
2017-12-16T22:06:21.855Z,1.73
2017-12-16T22:08:53.576Z,1.40
2017-12-16T22:11:21.743Z,2.10
2017-12-16T22:13:49.686Z,2.20
2017-12-16T22:16:18.422Z,1.83
2017-12-16T22:18:46.977Z,1.33
2017-12-16T22:21:15.730Z,1.67
2017-12-16T22:23:44.212Z,1.40
2017-12-16T22:26:13.425Z,1.10
2017-12-16T22:28:42.122Z,1.17
2017-12-16T22:31:10.526Z,1.80
2017-12-16T22:33:39.183Z,1.40
2017-12-16T22:36:07.958Z,2.30
2017-12-16T22:38:36.480Z,1.47
2017-12-16T22:41:05.121Z,1.40
2017-12-16T22:43:34.276Z,1.20
2017-12-16T22:46:04.196Z,0.73
2017-12-16T22:48:33.377Z,1.90
2017-12-16T22:51:01.977Z,0.93
2017-12-16T22:53:30.656Z,1.20
2017-12-16T22:55:59.912Z,3.33
2017-12-16T22:58:28.287Z,1.70
2017-12-16T23:00:58.319Z,0.87
2017-12-16T23:03:26.676Z,2.00
2017-12-16T23:05:55.063Z,0.70
2017-12-16T23:08:25.076Z,1.30
2017-12-16T23:10:54.360Z,1.00
2017-12-16T23:13:24.460Z,1.33
2017-12-16T23:15:54.160Z,1.60
2017-12-16T23:18:23.362Z,1.13
2017-12-16T23:20:51.934Z,0.80
2017-12-16T23:23:24.093Z,1.03
2017-12-16T23:25:57.391Z,0.90
2017-12-16T23:28:29.275Z,0.97
2017-12-16T23:31:01.602Z,0.70
2017-12-16T23:33:39.633Z,0.70
2017-12-16T23:36:13.431Z,2.20
2017-12-16T23:38:47.132Z,0.73
2017-12-16T23:41:22.129Z,0.60
2017-12-16T23:43:53.624Z,0.50
2017-12-16T23:46:27.226Z,1.97
2017-12-16T23:49:01.228Z,1.20
2017-12-16T23:51:31.038Z,0.70
2017-12-16T23:54:00.580Z,1.53
2017-12-16T23:56:30.899Z,0.90
2017-12-16T23:59:00.924Z,0.93
